createdAt,value
2023-02-18T00:01:22.365Z,5.43
2023-02-18T00:06:18.577Z,4.00
2023-02-18T00:11:11.413Z,2.23
2023-02-18T00:16:12.561Z,3.67
2023-02-18T00:21:06.588Z,3.10
2023-02-18T00:26:06.036Z,4.23
2023-02-18T00:30:58.210Z,3.57
2023-02-18T00:35:50.347Z,3.90
2023-02-18T00:40:43.384Z,4.07
2023-02-18T00:45:35.347Z,3.40
2023-02-18T00:50:29.051Z,4.00
2023-02-18T00:55:22.723Z,1.80
2023-02-18T01:00:15.115Z,4.43
2023-02-18T01:05:07.207Z,5.30
2023-02-18T01:09:59.345Z,3.43
2023-02-18T01:14:51.604Z,3.87
2023-02-18T01:19:43.880Z,2.73
2023-02-18T01:24:38.538Z,2.83
2023-02-18T01:29:30.540Z,3.57
2023-02-18T01:34:22.703Z,5.13
2023-02-18T01:39:15.737Z,1.40
2023-02-18T01:44:24.110Z,3.40
2023-02-18T01:49:26.707Z,4.40
2023-02-18T01:54:27.559Z,7.73
2023-02-18T01:59:37.865Z,3.00
2023-02-18T02:04:30.245Z,2.57
2023-02-18T02:10:16.904Z,3.13
2023-02-18T02:15:18.140Z,1.73
2023-02-18T02:20:35.664Z,4.13
2023-02-18T02:25:31.944Z,6.50
2023-02-18T02:30:49.666Z,4.37
2023-02-18T02:35:59.112Z,3.53
2023-02-18T02:41:30.176Z,3.73
2023-02-18T02:46:38.885Z,3.80
2023-02-18T02:51:41.800Z,4.07
2023-02-18T02:56:33.956Z,2.80
2023-02-18T03:01:49.730Z,3.80
2023-02-18T03:06:51.196Z,6.67
2023-02-18T03:11:53.947Z,4.50
2023-02-18T03:16:59.802Z,4.43
2023-02-18T03:21:56.633Z,2.10
2023-02-18T03:26:54.951Z,2.73
2023-02-18T03:31:52.606Z,6.53
2023-02-18T03:36:45.870Z,5.57
2023-02-18T03:41:39.044Z,6.03
2023-02-18T03:46:32.123Z,7.47
2023-02-18T03:51:24.823Z,3.17
2023-02-18T03:56:17.759Z,4.47
2023-02-18T04:01:10.084Z,4.90
2023-02-18T04:06:03.515Z,4.83
2023-02-18T04:10:55.512Z,4.77
2023-02-18T04:15:50.089Z,3.23
2023-02-18T04:20:43.610Z,4.50
2023-02-18T04:25:37.155Z,2.87
2023-02-18T04:30:38.075Z,5.73
2023-02-18T04:35:30.207Z,10.13
2023-02-18T04:40:25.492Z,5.17
2023-02-18T04:45:17.581Z,6.03
2023-02-18T04:50:10.089Z,6.13
2023-02-18T04:55:02.044Z,3.30
2023-02-18T04:59:54.122Z,5.33
2023-02-18T05:04:46.177Z,4.53
2023-02-18T05:09:38.265Z,6.07
2023-02-18T05:14:30.307Z,4.07
2023-02-18T05:19:25.162Z,5.90
2023-02-18T05:24:17.206Z,7.47
2023-02-18T05:29:09.196Z,6.17
2023-02-18T05:34:04.691Z,7.23
2023-02-18T05:38:56.696Z,4.40
2023-02-18T05:44:07.354Z,5.73
2023-02-18T05:48:59.410Z,6.67
2023-02-18T05:53:51.532Z,7.07
2023-02-18T05:58:43.845Z,4.30
2023-02-18T06:03:35.825Z,4.73
2023-02-18T06:08:27.886Z,6.20
2023-02-18T06:13:21.159Z,7.77
2023-02-18T06:18:15.969Z,10.30
2023-02-18T06:23:09.129Z,10.73
2023-02-18T06:28:02.201Z,8.70
2023-02-18T06:32:54.381Z,7.83
2023-02-18T06:37:46.423Z,9.27
2023-02-18T06:42:38.534Z,10.37
2023-02-18T06:47:30.533Z,9.43
2023-02-18T06:52:22.646Z,11.87
2023-02-18T06:57:14.657Z,9.40
2023-02-18T07:02:06.784Z,10.80
2023-02-18T07:06:58.836Z,9.37
2023-02-18T07:11:50.794Z,10.13
2023-02-18T07:16:42.784Z,11.67
2023-02-18T07:21:34.868Z,9.23
2023-02-18T07:26:26.907Z,11.70
2023-02-18T07:31:19.083Z,11.90
2023-02-18T07:36:11.282Z,10.63
2023-02-18T07:41:03.486Z,12.53
2023-02-18T07:45:55.652Z,12.27
2023-02-18T07:50:47.846Z,15.83
2023-02-18T07:55:52.148Z,12.53
2023-02-18T08:00:44.462Z,12.87
2023-02-18T08:05:36.494Z,12.63
2023-02-18T08:10:28.575Z,15.53
2023-02-18T08:15:20.693Z,18.83
2023-02-18T08:20:12.916Z,13.33
2023-02-18T08:25:06.664Z,12.57
2023-02-18T08:29:58.791Z,18.40
2023-02-18T08:34:50.818Z,14.13
2023-02-18T08:39:43.023Z,11.87
2023-02-18T08:44:35.071Z,13.50
2023-02-18T08:49:27.196Z,13.70
2023-02-18T08:54:20.008Z,12.60
2023-02-18T08:59:12.044Z,15.77
2023-02-18T09:04:04.267Z,13.23
2023-02-18T09:08:56.403Z,13.77
2023-02-18T09:13:48.400Z,12.67
2023-02-18T09:18:40.467Z,12.53
2023-02-18T09:23:33.567Z,11.87
2023-02-18T09:28:26.272Z,17.57
2023-02-18T09:33:18.736Z,11.70
2023-02-18T09:38:12.475Z,10.13
2023-02-18T09:43:05.173Z,11.03
2023-02-18T09:47:58.580Z,11.43
2023-02-18T09:52:50.937Z,11.20
2023-02-18T09:57:49.649Z,9.93
2023-02-18T10:02:59.024Z,11.10
2023-02-18T10:07:56.685Z,8.83
2023-02-18T10:12:50.034Z,6.53
2023-02-18T10:17:42.082Z,6.60
2023-02-18T10:22:34.263Z,6.77
2023-02-18T10:27:33.084Z,1.03
2023-02-18T10:32:30.966Z,1.97
2023-02-18T10:37:44.753Z,0.87
2023-02-18T10:42:45.484Z,3.27
2023-02-18T10:47:44.391Z,1.80
2023-02-18T10:52:47.712Z,0.80
2023-02-18T10:57:49.791Z,0.50
2023-02-18T11:02:43.525Z,0.73
2023-02-18T11:07:38.903Z,0.40
2023-02-18T11:12:35.679Z,1.27
2023-02-18T11:17:31.568Z,2.00
2023-02-18T11:22:28.621Z,0.83
2023-02-18T11:28:04.466Z,0.33
2023-02-18T11:32:59.763Z,0.70
2023-02-18T11:37:54.493Z,1.53
2023-02-18T11:42:46.517Z,0.30
2023-02-18T11:47:38.569Z,24.67
2023-02-18T11:52:34.710Z,8.57
2023-02-18T11:57:28.100Z,1.43
2023-02-18T12:02:20.078Z,1.93
2023-02-18T12:07:17.839Z,1.00
2023-02-18T12:12:36.620Z,0.40
2023-02-18T12:17:49.452Z,0.77
2023-02-18T12:23:14.018Z,0.93
2023-02-18T12:28:09.022Z,0.50
2023-02-18T12:33:15.362Z,2.07
2023-02-18T12:38:25.291Z,0.70
2023-02-18T12:43:20.279Z,1.43
2023-02-18T12:48:47.608Z,4.60
2023-02-18T12:53:52.017Z,6.50
2023-02-18T12:59:08.838Z,2.97
2023-02-18T13:04:14.918Z,1.37
2023-02-18T13:09:17.301Z,13.30
2023-02-18T13:14:33.617Z,31.03
2023-02-18T13:19:33.235Z,9.27
2023-02-18T13:24:40.483Z,3.90
2023-02-18T13:30:06.887Z,4.57
2023-02-18T13:35:28.671Z,1.67
2023-02-18T13:40:25.399Z,1.80
2023-02-18T13:46:02.124Z,0.87
2023-02-18T13:51:00.484Z,0.30
2023-02-18T13:56:21.882Z,1.17
2023-02-18T14:01:43.136Z,0.40
2023-02-18T14:06:38.879Z,2.47
2023-02-18T14:11:41.156Z,0.50
2023-02-18T14:17:10.306Z,1.53
2023-02-18T14:22:31.887Z,0.40
2023-02-18T14:27:24.688Z,0.57
2023-02-18T14:32:19.441Z,0.33
2023-02-18T14:37:30.135Z,0.80
2023-02-18T14:42:42.899Z,0.73
2023-02-18T14:48:00.446Z,3.53
2023-02-18T14:52:57.414Z,1.17
2023-02-18T14:57:54.139Z,0.67
2023-02-18T15:02:50.491Z,0.90
2023-02-18T15:07:42.528Z,0.63
2023-02-18T15:12:34.610Z,0.40
2023-02-18T15:17:29.973Z,0.30
2023-02-18T15:22:24.204Z,0.40
2023-02-18T15:27:23.459Z,0.30
2023-02-18T15:32:19.594Z,0.20
2023-02-18T15:37:15.375Z,0.20
2023-02-18T15:42:23.975Z,0.60
2023-02-18T15:47:18.456Z,0.83
2023-02-18T15:52:10.481Z,0.27
2023-02-18T15:57:03.510Z,0.60
2023-02-18T16:02:10.077Z,0.60
2023-02-18T16:07:18.235Z,15.77
2023-02-18T16:12:26.530Z,0.80
2023-02-18T16:17:22.539Z,0.90
2023-02-18T16:22:31.173Z,0.20
2023-02-18T16:27:28.326Z,0.50
2023-02-18T16:32:21.969Z,0.40
2023-02-18T16:37:32.652Z,1.27
2023-02-18T16:42:24.719Z,0.67
2023-02-18T16:47:18.311Z,0.50
2023-02-18T16:52:13.128Z,1.10
2023-02-18T16:57:05.041Z,1.13
2023-02-18T17:01:57.115Z,1.53
2023-02-18T17:06:49.700Z,1.43
2023-02-18T17:11:41.700Z,0.70
2023-02-18T17:16:33.754Z,4.97
2023-02-18T17:21:25.996Z,0.73
2023-02-18T17:26:25.577Z,0.97
2023-02-18T17:31:24.144Z,0.50
2023-02-18T17:36:16.649Z,0.90
2023-02-18T17:41:12.313Z,4.20
2023-02-18T17:46:04.644Z,1.23
2023-02-18T17:50:57.855Z,0.50
2023-02-18T17:55:50.961Z,0.80
2023-02-18T18:00:49.464Z,0.97
2023-02-18T18:05:44.068Z,0.50
2023-02-18T18:10:47.614Z,0.63
2023-02-18T18:15:42.465Z,10.03
2023-02-18T18:20:35.360Z,2.57
2023-02-18T18:25:38.738Z,1.77
2023-02-18T18:30:34.729Z,1.30
2023-02-18T18:35:35.373Z,1.60
2023-02-18T18:40:30.587Z,1.43
2023-02-18T18:45:34.612Z,1.33
2023-02-18T18:50:29.129Z,0.87
2023-02-18T18:55:40.730Z,1.07
2023-02-18T19:00:38.736Z,1.43
2023-02-18T19:05:33.808Z,2.47
2023-02-18T19:10:44.136Z,0.93
2023-02-18T19:15:36.196Z,1.93
2023-02-18T19:20:32.436Z,1.53
2023-02-18T19:25:25.197Z,1.03
2023-02-18T19:30:26.025Z,2.20
2023-02-18T19:35:18.442Z,1.43
2023-02-18T19:40:14.496Z,0.83
2023-02-18T19:45:10.177Z,1.00
2023-02-18T19:50:02.752Z,1.53
2023-02-18T19:54:55.484Z,0.63
2023-02-18T19:59:47.936Z,1.77
2023-02-18T20:04:39.990Z,1.10
2023-02-18T20:09:31.981Z,1.10
2023-02-18T20:14:27.112Z,1.70
2023-02-18T20:19:20.618Z,0.90
2023-02-18T20:24:12.974Z,1.50
2023-02-18T20:29:05.424Z,0.80
2023-02-18T20:33:58.362Z,0.70
2023-02-18T20:38:56.256Z,1.00
2023-02-18T20:43:49.470Z,1.60
2023-02-18T20:48:41.534Z,1.13
2023-02-18T20:53:35.191Z,0.83
2023-02-18T20:58:27.608Z,2.13
2023-02-18T21:03:19.828Z,2.83
2023-02-18T21:08:11.816Z,1.00
2023-02-18T21:13:03.814Z,1.20
2023-02-18T21:17:55.833Z,1.17
2023-02-18T21:22:48.492Z,2.67
2023-02-18T21:27:40.481Z,2.27
2023-02-18T21:32:32.528Z,1.37
2023-02-18T21:37:24.613Z,1.90
2023-02-18T21:42:16.578Z,1.70
2023-02-18T21:47:08.782Z,1.80
2023-02-18T21:52:02.227Z,2.33
2023-02-18T21:56:55.047Z,1.90
2023-02-18T22:01:48.036Z,2.77
2023-02-18T22:06:40.056Z,2.03
2023-02-18T22:11:32.930Z,1.80
2023-02-18T22:16:28.201Z,1.93
2023-02-18T22:21:21.194Z,2.90
2023-02-18T22:26:13.385Z,2.00
2023-02-18T22:31:13.220Z,3.50
2023-02-18T22:36:09.879Z,2.30
2023-02-18T22:41:10.134Z,4.00
2023-02-18T22:46:07.038Z,3.37
2023-02-18T22:51:17.120Z,3.73
2023-02-18T22:56:14.494Z,2.90
2023-02-18T23:01:07.112Z,3.57
2023-02-18T23:06:06.025Z,4.43
2023-02-18T23:11:12.954Z,3.87
2023-02-18T23:16:08.595Z,3.60
2023-02-18T23:21:21.359Z,5.23
2023-02-18T23:26:14.137Z,4.03
2023-02-18T23:31:06.394Z,3.90
2023-02-18T23:36:17.697Z,4.23
2023-02-18T23:41:09.972Z,3.67
2023-02-18T23:46:02.217Z,4.40
2023-02-18T23:51:01.901Z,2.80
2023-02-18T23:56:14.860Z,4.47
